createdAt,value
2018-09-18T00:00:50.000Z,6.57
2018-09-18T00:03:18.158Z,5.93
2018-09-18T00:05:46.326Z,7.00
2018-09-18T00:08:14.519Z,7.60
2018-09-18T00:10:42.685Z,6.50
2018-09-18T00:13:10.871Z,7.20
2018-09-18T00:15:39.029Z,8.40
2018-09-18T00:18:07.267Z,7.20
2018-09-18T00:20:35.451Z,8.43
2018-09-18T00:23:03.629Z,6.67
2018-09-18T00:25:31.844Z,7.77
2018-09-18T00:28:00.031Z,7.17
2018-09-18T00:30:28.191Z,7.83
2018-09-18T00:32:56.383Z,7.60
2018-09-18T00:35:24.558Z,7.53
2018-09-18T00:37:52.742Z,6.50
2018-09-18T00:40:20.901Z,8.80
2018-09-18T00:42:49.102Z,8.20
2018-09-18T00:45:17.280Z,7.67
2018-09-18T00:47:45.455Z,8.17
2018-09-18T00:50:13.635Z,7.23
2018-09-18T00:52:41.791Z,7.23
2018-09-18T00:55:09.966Z,7.53
2018-09-18T00:57:38.140Z,8.10
2018-09-18T01:00:06.320Z,8.20
2018-09-18T01:02:34.473Z,8.93
2018-09-18T01:05:02.650Z,8.40
2018-09-18T01:07:30.831Z,8.30
2018-09-18T01:09:59.010Z,8.13
2018-09-18T01:12:27.182Z,7.90
2018-09-18T01:14:55.346Z,8.43
2018-09-18T01:17:23.517Z,7.60
2018-09-18T01:19:51.694Z,8.40
2018-09-18T01:22:19.899Z,8.80
2018-09-18T01:24:48.063Z,8.00
2018-09-18T01:27:16.243Z,7.80
2018-09-18T01:29:44.443Z,8.30
2018-09-18T01:32:12.615Z,8.07
2018-09-18T01:34:40.800Z,8.50
2018-09-18T01:37:09.059Z,8.10
2018-09-18T01:39:37.303Z,8.93
2018-09-18T01:42:05.923Z,8.30
2018-09-18T01:44:34.105Z,8.83
2018-09-18T01:47:02.292Z,8.37
2018-09-18T01:49:30.470Z,8.53
2018-09-18T01:51:58.637Z,8.50
2018-09-18T01:54:26.819Z,7.83
2018-09-18T01:56:59.047Z,7.90
2018-09-18T01:59:27.273Z,8.57
2018-09-18T02:01:55.481Z,7.80
2018-09-18T02:04:23.657Z,8.73
2018-09-18T02:06:51.833Z,8.53
2018-09-18T02:09:20.060Z,7.87
2018-09-18T02:11:48.232Z,8.63
2018-09-18T02:14:16.411Z,9.43
2018-09-18T02:16:44.592Z,9.23
2018-09-18T02:19:12.785Z,7.90
2018-09-18T02:21:40.981Z,9.60
2018-09-18T02:24:09.158Z,8.50
2018-09-18T02:26:37.326Z,8.80
2018-09-18T02:29:05.536Z,8.20
2018-09-18T02:31:33.713Z,7.37
2018-09-18T02:34:01.893Z,9.23
2018-09-18T02:36:30.131Z,7.50
2018-09-18T02:38:58.294Z,9.00
2018-09-18T02:41:26.505Z,9.27
2018-09-18T02:43:54.722Z,8.57
2018-09-18T02:46:22.913Z,7.40
2018-09-18T02:48:51.096Z,8.00
2018-09-18T02:51:19.281Z,8.30
2018-09-18T02:53:47.500Z,8.23
2018-09-18T02:56:15.727Z,8.60
2018-09-18T02:58:43.948Z,8.67
2018-09-18T03:01:12.121Z,8.70
2018-09-18T03:03:40.294Z,8.07
2018-09-18T03:06:08.705Z,8.30
2018-09-18T03:08:36.890Z,7.40
2018-09-18T03:11:05.144Z,8.50
2018-09-18T03:13:33.309Z,8.47
2018-09-18T03:16:01.537Z,7.70
2018-09-18T03:18:29.753Z,8.80
2018-09-18T03:20:57.984Z,8.80
2018-09-18T03:23:26.153Z,8.93
2018-09-18T03:25:54.408Z,8.60
2018-09-18T03:28:22.623Z,8.73
2018-09-18T03:30:50.800Z,8.67
2018-09-18T03:33:18.964Z,9.83
2018-09-18T03:35:47.264Z,10.40
2018-09-18T03:38:15.377Z,9.87
2018-09-18T03:40:43.553Z,10.07
2018-09-18T03:43:11.741Z,9.23
2018-09-18T03:45:39.929Z,9.70
2018-09-18T03:48:08.196Z,9.00
2018-09-18T03:50:36.374Z,10.17
2018-09-18T03:53:04.553Z,10.80
2018-09-18T03:55:32.794Z,9.90
2018-09-18T03:58:01.012Z,9.67
2018-09-18T04:00:29.178Z,7.70
2018-09-18T04:02:57.413Z,8.97
2018-09-18T04:05:25.535Z,8.23
2018-09-18T04:07:53.720Z,8.17
2018-09-18T04:10:21.885Z,7.83
2018-09-18T04:12:50.069Z,10.00
2018-09-18T04:15:18.247Z,9.37
2018-09-18T04:17:46.454Z,8.50
2018-09-18T04:20:14.676Z,10.37
2018-09-18T04:22:42.924Z,10.03
2018-09-18T04:25:11.184Z,10.70
2018-09-18T04:27:39.874Z,7.57
2018-09-18T04:30:08.167Z,8.70
2018-09-18T04:32:36.358Z,8.13
2018-09-18T04:35:04.668Z,7.93
2018-09-18T04:37:32.845Z,9.73
2018-09-18T04:40:01.031Z,8.70
2018-09-18T04:42:29.262Z,8.50
2018-09-18T04:44:57.429Z,9.20
2018-09-18T04:47:25.616Z,8.23
2018-09-18T04:49:53.777Z,7.83
2018-09-18T04:52:22.018Z,8.80
2018-09-18T04:54:50.276Z,7.77
2018-09-18T04:57:18.452Z,9.37
2018-09-18T04:59:46.608Z,9.40
2018-09-18T05:02:14.783Z,9.47
2018-09-18T05:04:42.970Z,9.37
2018-09-18T05:07:11.156Z,10.63
2018-09-18T05:09:48.955Z,10.57
2018-09-18T05:12:17.328Z,10.20
2018-09-18T05:14:45.497Z,9.57
2018-09-18T05:17:13.728Z,9.17
2018-09-18T05:19:41.893Z,10.23
2018-09-18T05:22:10.094Z,10.00
2018-09-18T05:24:38.269Z,10.27
2018-09-18T05:27:06.537Z,10.77
2018-09-18T05:29:34.714Z,10.23
2018-09-18T05:32:02.893Z,9.40
2018-09-18T05:34:31.070Z,9.77
2018-09-18T05:36:59.257Z,10.43
2018-09-18T05:39:27.433Z,10.33
2018-09-18T05:41:55.615Z,10.30
2018-09-18T05:44:24.006Z,11.97
2018-09-18T05:46:52.197Z,10.90
2018-09-18T05:49:20.383Z,10.30
2018-09-18T05:51:48.562Z,11.33
2018-09-18T05:54:16.737Z,11.13
2018-09-18T05:56:44.897Z,11.20
2018-09-18T05:59:13.089Z,9.87
2018-09-18T06:01:41.303Z,10.70
2018-09-18T06:04:09.544Z,12.03
2018-09-18T06:06:37.700Z,11.40
2018-09-18T06:09:08.422Z,11.33
2018-09-18T06:11:36.589Z,11.73
2018-09-18T06:14:04.816Z,10.80
2018-09-18T06:16:33.168Z,11.70
2018-09-18T06:19:01.362Z,11.83
2018-09-18T06:21:29.616Z,11.80
2018-09-18T06:23:57.781Z,12.10
2018-09-18T06:26:25.988Z,13.27
2018-09-18T06:28:54.373Z,15.33
2018-09-18T06:31:22.631Z,15.60
2018-09-18T06:33:51.207Z,17.20
2018-09-18T06:36:19.438Z,15.07
2018-09-18T06:38:47.629Z,15.37
2018-09-18T06:41:15.789Z,16.07
2018-09-18T06:43:44.008Z,14.13
2018-09-18T06:46:12.174Z,15.27
2018-09-18T06:48:40.387Z,15.73
2018-09-18T06:51:08.670Z,17.73
2018-09-18T06:53:37.022Z,17.07
2018-09-18T06:56:05.189Z,18.57
2018-09-18T06:58:33.377Z,18.47
2018-09-18T07:01:01.577Z,16.93
2018-09-18T07:03:29.785Z,16.90
2018-09-18T07:05:57.988Z,17.50
2018-09-18T07:08:26.166Z,16.93
2018-09-18T07:10:54.329Z,17.00
2018-09-18T07:13:22.505Z,16.97
2018-09-18T07:15:50.668Z,16.80
2018-09-18T07:18:18.873Z,15.40
2018-09-18T07:20:47.042Z,15.33
2018-09-18T07:23:15.218Z,17.10
2018-09-18T07:25:43.389Z,14.93
2018-09-18T07:28:11.925Z,14.77
2018-09-18T07:30:40.102Z,16.10
2018-09-18T07:33:08.282Z,15.67
2018-09-18T07:35:36.490Z,16.27
2018-09-18T07:38:04.717Z,14.50
2018-09-18T07:40:32.885Z,13.30
2018-09-18T07:43:01.058Z,12.90
2018-09-18T07:45:29.231Z,12.37
2018-09-18T07:47:57.396Z,12.73
2018-09-18T08:59:15.952Z,9.27
2018-09-18T09:01:44.164Z,9.30
2018-09-18T09:04:12.386Z,8.93
2018-09-18T09:06:40.600Z,8.55
2018-09-18T09:09:10.959Z,8.30
2018-09-18T09:11:39.456Z,7.93
2018-09-18T09:14:07.677Z,7.73
2018-09-18T09:16:36.045Z,7.60
2018-09-18T09:19:04.222Z,8.40
2018-09-18T09:21:32.523Z,7.95
2018-09-18T09:24:00.795Z,7.55
2018-09-18T09:26:29.015Z,7.90
2018-09-18T09:28:57.180Z,7.93
2018-09-18T09:31:25.380Z,8.00
2018-09-18T09:33:53.585Z,8.28
2018-09-18T09:36:21.834Z,8.50
2018-09-18T09:38:49.996Z,7.90
2018-09-18T09:41:18.193Z,7.65
2018-09-18T09:43:46.652Z,7.60
2018-09-18T09:46:14.793Z,7.70
2018-09-18T09:48:42.986Z,8.08
2018-09-18T09:51:11.223Z,7.20
2018-09-18T09:53:39.357Z,7.50
2018-09-18T09:56:07.557Z,7.80
2018-09-18T09:58:35.725Z,6.70
2018-09-18T10:01:09.286Z,7.17
2018-09-18T10:03:37.486Z,6.77
2018-09-18T10:06:05.654Z,7.70
2018-09-18T10:08:33.903Z,7.10
2018-09-18T10:11:02.151Z,7.50
2018-09-18T10:13:30.253Z,7.23
2018-09-18T10:15:58.438Z,7.17
2018-09-18T10:18:26.638Z,7.50
2018-09-18T10:20:54.826Z,7.10
2018-09-18T10:23:23.033Z,7.25
2018-09-18T10:25:51.374Z,7.10
2018-09-18T10:28:19.551Z,6.50
2018-09-18T10:30:47.731Z,7.70
2018-09-18T10:33:15.906Z,7.10
2018-09-18T10:35:44.145Z,7.08
2018-09-18T10:38:12.334Z,7.10
2018-09-18T10:40:40.550Z,6.90
2018-09-18T10:43:08.757Z,6.50
2018-09-18T10:45:36.963Z,6.75
2018-09-18T10:48:05.113Z,6.33
2018-09-18T10:50:33.298Z,6.75
2018-09-18T10:53:01.508Z,6.45
2018-09-18T10:55:29.757Z,5.97
2018-09-18T10:57:57.891Z,6.37
2018-09-18T11:00:26.096Z,6.40
2018-09-18T11:02:54.270Z,6.80
2018-09-18T11:05:22.439Z,6.70
2018-09-18T11:07:50.671Z,6.08
2018-09-18T11:10:18.853Z,5.90
2018-09-18T11:12:47.030Z,6.20
2018-09-18T11:15:15.176Z,6.37
2018-09-18T11:17:43.406Z,5.80
2018-09-18T11:20:11.657Z,5.97
2018-09-18T11:22:39.853Z,6.00
2018-09-18T11:25:07.961Z,5.80
2018-09-18T11:27:36.194Z,6.15
2018-09-18T11:30:04.365Z,6.05
2018-09-18T11:32:32.555Z,6.00
2018-09-18T11:35:00.729Z,5.92
2018-09-18T11:37:28.902Z,5.35
2018-09-18T11:39:57.070Z,5.80
2018-09-18T11:42:25.278Z,5.90
2018-09-18T11:44:53.461Z,5.55
2018-09-18T11:47:21.650Z,5.70
2018-09-18T11:49:49.850Z,5.78
2018-09-18T11:52:18.038Z,5.97
2018-09-18T11:54:46.262Z,5.60
2018-09-18T11:57:14.528Z,5.37
2018-09-18T11:59:42.661Z,5.90
2018-09-18T12:02:10.869Z,5.55
2018-09-18T12:04:39.118Z,5.90
2018-09-18T12:07:07.249Z,5.80
2018-09-18T12:09:35.422Z,5.60
2018-09-18T12:12:03.609Z,5.20
2018-09-18T12:14:31.813Z,5.10
2018-09-18T12:17:00.057Z,5.50
2018-09-18T12:19:28.186Z,5.33
2018-09-18T12:21:56.395Z,5.60
2018-09-18T12:24:24.589Z,5.50
2018-09-18T12:26:53.426Z,5.10
2018-09-18T12:29:21.730Z,5.72
2018-09-18T12:31:49.893Z,5.62
2018-09-18T12:34:18.065Z,4.83
2018-09-18T12:36:46.238Z,5.00
2018-09-18T12:39:14.406Z,5.00
2018-09-18T13:06:17.594Z,4.73
2018-09-18T13:08:45.686Z,4.43
2018-09-18T13:11:13.858Z,4.67
2018-09-18T13:13:42.034Z,4.50
2018-09-18T13:16:10.215Z,4.50
2018-09-18T13:18:38.376Z,4.60
2018-09-18T13:21:06.544Z,4.07
2018-09-18T13:23:34.701Z,4.00
2018-09-18T13:26:02.911Z,3.37
2018-09-18T13:28:31.096Z,4.10
2018-09-18T13:30:59.304Z,3.70
2018-09-18T13:33:27.448Z,3.77
2018-09-18T13:35:55.630Z,3.60
2018-09-18T13:38:23.806Z,3.23
2018-09-18T13:40:52.045Z,4.00
2018-09-18T13:43:20.198Z,4.37
2018-09-18T13:45:48.741Z,3.77
2018-09-18T13:48:16.915Z,4.07
2018-09-18T13:50:45.114Z,4.20
2018-09-18T13:53:13.290Z,4.13
2018-09-18T13:55:41.803Z,3.77
2018-09-18T13:58:09.857Z,3.90
2018-09-18T14:00:38.030Z,3.00
2018-09-18T14:03:06.198Z,3.63
2018-09-18T14:05:34.462Z,4.17
2018-09-18T14:08:02.614Z,3.63
2018-09-18T14:10:30.782Z,3.47
2018-09-18T14:12:58.950Z,3.53
2018-09-18T14:15:27.135Z,4.00
2018-09-18T14:17:55.306Z,3.83
2018-09-18T14:20:23.577Z,3.60
2018-09-18T14:22:51.685Z,3.37
2018-09-18T14:25:19.857Z,4.07
2018-09-18T14:27:48.050Z,3.83
2018-09-18T14:30:16.217Z,4.03
2018-09-18T14:32:44.385Z,3.50
2018-09-18T14:35:12.557Z,3.30
2018-09-18T14:37:40.735Z,3.90
2018-09-18T14:40:09.020Z,3.43
2018-09-18T14:42:37.190Z,4.10
2018-09-18T14:45:05.717Z,4.30
2018-09-18T14:47:33.905Z,3.67
2018-09-18T14:50:02.071Z,4.20
2018-09-18T14:52:30.242Z,3.77
2018-09-18T14:54:58.409Z,3.80
2018-09-18T14:57:26.578Z,4.40
2018-09-18T14:59:54.766Z,4.23
2018-09-18T15:02:22.943Z,4.13
2018-09-18T15:36:48.657Z,6.00
2018-09-18T15:39:16.877Z,5.20
2018-09-18T15:41:45.098Z,5.40
2018-09-18T15:44:13.281Z,5.90
2018-09-18T15:46:41.473Z,5.30
2018-09-18T15:49:09.662Z,4.70
2018-09-18T15:51:37.869Z,5.50
2018-09-18T15:54:06.313Z,5.25
2018-09-18T15:56:34.449Z,5.45
2018-09-18T15:59:02.637Z,5.00
2018-09-18T16:01:30.847Z,5.30
2018-09-18T16:03:59.158Z,5.85
2018-09-18T16:06:27.317Z,5.50
2018-09-18T16:08:55.893Z,6.03
2018-09-18T16:11:24.124Z,5.40
2018-09-18T16:13:52.317Z,5.92
2018-09-18T16:16:20.610Z,5.80
2018-09-18T16:18:48.734Z,5.70
2018-09-18T16:21:16.918Z,6.28
2018-09-18T16:23:45.100Z,6.55
2018-09-18T16:26:13.319Z,5.70
2018-09-18T16:28:41.500Z,5.75
2018-09-18T16:31:09.686Z,5.57
2018-09-18T16:33:38.114Z,6.00
2018-09-18T16:36:06.666Z,5.75
2018-09-18T16:38:35.595Z,6.25
2018-09-18T16:41:03.799Z,5.50
2018-09-18T16:43:31.979Z,6.05
2018-09-18T16:46:00.186Z,6.05
2018-09-18T16:48:28.410Z,6.58
2018-09-18T16:50:56.578Z,6.20
2018-09-18T16:53:24.780Z,6.10
2018-09-18T16:55:52.981Z,6.30
2018-09-18T16:58:21.218Z,5.70
2018-09-18T17:00:49.380Z,6.40
2018-09-18T17:03:17.573Z,5.90
2018-09-18T17:05:45.834Z,5.40
2018-09-18T17:08:13.997Z,5.45
2018-09-18T17:10:42.303Z,6.00
2018-09-18T17:13:10.421Z,5.75
2018-09-18T17:15:38.624Z,6.30
2018-09-18T17:18:06.870Z,5.30
2018-09-18T17:20:35.070Z,6.10
2018-09-18T17:23:03.264Z,5.50
2018-09-18T17:25:31.470Z,6.20
2018-09-18T17:27:59.670Z,6.00
2018-09-18T17:30:27.873Z,6.08
2018-09-18T17:32:56.055Z,5.90
2018-09-18T17:35:24.361Z,5.62
2018-09-18T17:37:52.437Z,5.65
2018-09-18T17:40:20.655Z,6.40
2018-09-18T17:42:48.829Z,5.58
2018-09-18T17:45:17.039Z,6.30
2018-09-18T17:47:45.208Z,6.08
2018-09-18T17:50:13.480Z,6.80
2018-09-18T17:52:41.568Z,6.55
2018-09-18T17:55:09.749Z,6.00
2018-09-18T17:57:37.923Z,6.67
2018-09-18T18:00:06.126Z,6.60
2018-09-18T18:02:34.297Z,5.97
2018-09-18T18:05:02.464Z,6.27
2018-09-18T18:07:30.638Z,5.53
2018-09-18T18:09:58.810Z,6.43
2018-09-18T18:12:26.978Z,6.20
2018-09-18T18:14:55.144Z,6.10
2018-09-18T18:17:23.354Z,5.90
2018-09-18T18:19:51.477Z,5.60
2018-09-18T18:22:19.659Z,5.23
2018-09-18T18:24:47.834Z,5.77
2018-09-18T18:27:16.022Z,5.20
2018-09-18T18:29:44.180Z,4.97
2018-09-18T18:32:12.357Z,4.80
2018-09-18T18:34:40.517Z,4.30
2018-09-18T18:37:08.700Z,4.73
2018-09-18T18:39:36.881Z,4.20
2018-09-18T21:19:26.765Z,1.77
2018-09-18T21:21:55.000Z,1.75
2018-09-18T21:24:23.210Z,2.20
2018-09-18T21:26:51.378Z,1.82
2018-09-18T21:29:19.569Z,1.90
2018-09-18T21:31:47.753Z,1.80
2018-09-18T21:34:15.937Z,2.00
2018-09-18T21:36:44.174Z,1.95
2018-09-18T21:39:12.370Z,2.00
2018-09-18T21:41:40.586Z,1.80
2018-09-18T21:44:08.745Z,1.95
2018-09-18T21:46:36.980Z,1.92
2018-09-18T21:49:05.422Z,2.10
2018-09-18T21:51:33.613Z,2.20
2018-09-18T21:54:02.660Z,2.30
2018-09-18T21:56:30.822Z,2.02
2018-09-18T21:58:59.010Z,1.90
2018-09-18T22:01:27.306Z,2.30
2018-09-18T22:03:55.373Z,2.00
2018-09-18T22:06:23.536Z,2.25
2018-09-18T22:08:51.763Z,2.10
2018-09-18T22:11:19.929Z,2.37
2018-09-18T22:13:48.165Z,2.03
2018-09-18T22:16:16.342Z,2.70
2018-09-18T22:18:44.523Z,2.10
2018-09-18T22:21:12.713Z,2.22
2018-09-18T22:23:40.889Z,2.40
2018-09-18T22:26:09.068Z,2.23
2018-09-18T22:28:37.236Z,2.50
2018-09-18T22:31:05.441Z,3.70
2018-09-18T22:33:33.618Z,2.43
2018-09-18T22:36:01.807Z,2.10
2018-09-18T22:38:30.042Z,2.67
2018-09-18T22:40:58.280Z,2.43
2018-09-18T22:43:26.430Z,2.07
2018-09-18T22:45:54.609Z,2.63
2018-09-18T22:48:22.789Z,2.27
2018-09-18T22:50:51.008Z,2.40
2018-09-18T22:53:19.164Z,2.63
2018-09-18T22:55:47.388Z,2.43
2018-09-18T22:58:15.568Z,2.57
2018-09-18T23:00:43.758Z,2.10
2018-09-18T23:03:11.968Z,2.20
2018-09-18T23:05:40.187Z,1.90
2018-09-18T23:08:08.345Z,2.33
2018-09-18T23:10:36.563Z,2.50
2018-09-18T23:13:04.744Z,2.33
2018-09-18T23:15:32.922Z,3.10
2018-09-18T23:18:01.108Z,2.10
2018-09-18T23:20:29.288Z,2.17
2018-09-18T23:22:57.467Z,3.20
2018-09-18T23:25:25.645Z,2.70
2018-09-18T23:27:53.865Z,2.70
2018-09-18T23:30:22.072Z,2.87
2018-09-18T23:32:50.233Z,2.40
2018-09-18T23:35:18.405Z,2.53
2018-09-18T23:37:46.615Z,2.70
2018-09-18T23:40:14.837Z,2.60
2018-09-18T23:42:43.029Z,2.63
2018-09-18T23:45:11.218Z,2.93
2018-09-18T23:47:39.454Z,3.00
2018-09-18T23:50:07.660Z,2.60
2018-09-18T23:52:35.868Z,2.90
2018-09-18T23:55:04.044Z,2.60
2018-09-18T23:57:32.217Z,3.00
